Time;durP1;ratioP1;P1;durP2;ratioP2;P2;SDS_P1;SDS_P2;PMS_P1;PMS_P2;Temp;Humidity;BMP_temperature;BMP_pressure;BME280_temperature;BME280_humidity;BME280_pressure;Samples;Min_cycle;Max_cycle;Signal;HPM_P1;HPM_P2
2023/12/27 00:02:10;;;;;;;9.60;0.70;;;;;;;4.33;100.00;101315.19;5000729;28;20203;-72
2023/12/27 00:04:38;;;;;;;6.80;1.10;;;;;;;4.29;100.00;101315.97;5003436;28;20193;-72
2023/12/27 00:07:04;;;;;;;3.03;0.83;;;;;;;4.23;100.00;101320.44;5003463;28;20251;-72
2023/12/27 00:09:31;;;;;;;8.73;0.83;;;;;;;4.19;100.00;101332.47;5005656;28;20230;-72
2023/12/27 00:11:57;;;;;;;2.17;0.60;;;;;;;4.17;100.00;101336.38;5006226;28;20196;-72
2023/12/27 00:14:24;;;;;;;3.57;0.87;;;;;;;4.12;100.00;101341.63;5005072;28;20254;-72
2023/12/27 00:16:50;;;;;;;2.07;1.13;;;;;;;4.10;100.00;101344.50;5001854;28;20703;-71
2023/12/27 00:19:18;;;;;;;5.20;1.10;;;;;;;4.08;100.00;101348.41;5008647;28;20656;-72
2023/12/27 00:21:44;;;;;;;2.23;0.93;;;;;;;4.05;100.00;101354.94;5005567;28;20197;-72
2023/12/27 00:24:10;;;;;;;3.70;0.70;;;;;;;4.02;100.00;101355.50;5001399;28;20193;-71
2023/12/27 00:26:37;;;;;;;3.73;0.80;;;;;;;3.98;100.00;101354.44;4998126;28;20205;-72
2023/12/27 00:29:03;;;;;;;4.97;0.80;;;;;;;3.99;100.00;101352.63;5002232;28;20315;-72
2023/12/27 00:31:30;;;;;;;2.00;0.80;;;;;;;3.96;100.00;101342.69;5004574;28;20258;-72
2023/12/27 00:33:56;;;;;;;3.30;0.70;;;;;;;3.93;100.00;101343.19;5001314;28;20560;-71
2023/12/27 00:36:29;;;;;;;7.23;1.00;;;;;;;3.89;100.00;101350.03;4999585;28;20714;-73
2023/12/27 00:38:55;;;;;;;3.63;0.70;;;;;;;3.86;100.00;101351.34;5000264;28;20205;-72
2023/12/27 00:41:21;;;;;;;7.43;0.70;;;;;;;3.86;100.00;101363.59;5005427;28;20378;-73
2023/12/27 00:43:48;;;;;;;7.00;0.90;;;;;;;3.82;100.00;101365.16;5006350;28;20228;-71
2023/12/27 00:46:14;;;;;;;4.47;0.73;;;;;;;3.80;100.00;101369.88;5003477;28;20204;-72
2023/12/27 00:48:40;;;;;;;8.23;1.13;;;;;;;3.78;100.00;101371.97;5005245;28;20307;-72
2023/12/27 00:51:17;;;;;;;6.50;0.90;;;;;;;3.74;100.00;101373.53;5001741;28;20231;-72
2023/12/27 00:53:45;;;;;;;3.40;0.73;;;;;;;3.73;100.00;101385.03;5000496;28;20680;-72
2023/12/27 00:56:11;;;;;;;5.10;0.90;;;;;;;3.71;100.00;101384.47;5003581;28;20232;-72
2023/12/27 00:58:37;;;;;;;3.17;0.80;;;;;;;3.69;100.00;101389.19;5003553;28;20707;-72
2023/12/27 01:01:04;;;;;;;4.97;1.43;;;;;;;3.65;100.00;101391.53;5002368;28;20216;-72
2023/12/27 01:03:30;;;;;;;3.60;0.90;;;;;;;3.63;100.00;101396.22;5003013;28;20207;-72
2023/12/27 01:05:57;;;;;;;3.43;0.90;;;;;;;3.69;100.00;101405.63;4997583;28;20201;-72
2023/12/27 01:08:24;;;;;;;2.43;0.90;;;;;;;3.73;100.00;101408.53;4999721;28;20236;-72
2023/12/27 01:10:52;;;;;;;3.23;0.70;;;;;;;3.75;100.00;101409.84;4997960;28;20221;-72
2023/12/27 01:13:18;;;;;;;2.97;0.93;;;;;;;3.86;100.00;101405.41;5000193;28;20214;-72
2023/12/27 01:15:45;;;;;;;4.33;1.07;;;;;;;3.93;100.00;101398.06;5000616;28;20220;-72
2023/12/27 01:18:11;;;;;;;1.90;1.07;;;;;;;3.98;100.00;101406.72;5011732;28;20289;-72
2023/12/27 01:20:37;;;;;;;6.90;1.10;;;;;;;4.09;100.00;101420.56;5001232;28;20770;-71
2023/12/27 01:23:04;;;;;;;9.83;1.10;;;;;;;4.14;100.00;101418.72;5020582;28;20275;-71
2023/12/27 01:25:30;;;;;;;1.93;0.70;;;;;;;4.18;100.00;101429.44;5014526;28;20232;-72
2023/12/27 01:27:58;;;;;;;3.43;0.80;;;;;;;4.22;100.00;101427.88;5017275;28;20559;-73
2023/12/27 01:30:24;;;;;;;5.27;0.97;;;;;;;4.27;100.00;101422.63;5013931;28;20330;-71
2023/12/27 01:32:51;;;;;;;3.47;0.93;;;;;;;4.28;100.00;101426.81;5014623;28;20224;-71
2023/12/27 01:35:18;;;;;;;1.63;0.77;;;;;;;4.30;100.00;101433.34;5021245;28;20291;-71
2023/12/27 01:37:45;;;;;;;3.60;1.20;;;;;;;4.30;100.00;101435.19;5018592;28;20288;-71
2023/12/27 01:40:12;;;;;;;3.17;0.90;;;;;;;4.29;100.00;101439.63;5018872;28;20244;-71
2023/12/27 01:42:39;;;;;;;6.20;1.00;;;;;;;4.30;100.00;101445.66;5017058;28;20225;-71
2023/12/27 01:45:08;;;;;;;6.07;1.23;;;;;;;4.31;100.00;101452.44;5016457;28;20564;-72
2023/12/27 01:47:37;;;;;;;1.13;0.57;;;;;;;4.33;100.00;101458.97;5021427;28;20196;-71
2023/12/27 01:50:04;;;;;;;6.17;1.20;;;;;;;4.31;100.00;101466.28;5002286;28;20615;-72
2023/12/27 01:52:31;;;;;;;8.53;1.07;;;;;;;4.30;100.00;101462.09;5002920;28;20608;-73
2023/12/27 01:54:58;;;;;;;3.23;0.90;;;;;;;4.27;100.00;101472.31;5002908;28;20202;-73
2023/12/27 01:57:25;;;;;;;3.40;1.00;;;;;;;4.25;100.00;101483.03;4997590;28;20805;-71
2023/12/27 01:59:50;;;;;;;2.93;0.70;;;;;;;4.22;100.00;101483.56;5001986;28;20228;-71
2023/12/27 02:02:18;;;;;;;6.00;1.13;;;;;;;4.19;100.00;101491.91;5003043;28;20259;-72
2023/12/27 02:04:44;;;;;;;2.30;1.00;;;;;;;4.15;100.00;101479.63;4999712;28;20673;-72
2023/12/27 02:07:12;;;;;;;4.10;0.80;;;;;;;4.09;100.00;101486.66;4999241;28;20799;-72
2023/12/27 02:09:40;;;;;;;2.87;0.90;;;;;;;4.05;100.00;101484.84;5002765;28;20236;-72
2023/12/27 02:12:07;;;;;;;4.93;0.90;;;;;;;3.98;100.00;101489.53;4998417;28;20604;-72
2023/12/27 02:14:34;;;;;;;2.47;0.80;;;;;;;3.92;100.00;101487.94;5001815;28;20205;-72
2023/12/27 02:17:00;;;;;;;2.57;0.87;;;;;;;3.88;100.00;101484.31;5006378;28;20669;-72
2023/12/27 02:19:29;;;;;;;7.53;1.27;;;;;;;3.83;100.00;101490.28;5004635;28;20775;-72
2023/12/27 02:21:55;;;;;;;6.53;1.03;;;;;;;3.79;100.00;101491.84;5005856;28;20682;-72
2023/12/27 02:24:23;;;;;;;2.63;0.90;;;;;;;3.71;100.00;101487.13;5004951;28;20680;-73
2023/12/27 02:26:51;;;;;;;4.23;0.90;;;;;;;3.65;100.00;101493.41;5002732;28;20202;-73
2023/12/27 02:29:19;;;;;;;5.83;1.00;;;;;;;3.61;100.00;101494.16;5001098;28;20720;-72
2023/12/27 02:31:45;;;;;;;6.07;1.20;;;;;;;3.54;100.00;101504.06;5006104;28;20203;-72
2023/12/27 02:34:12;;;;;;;3.00;0.93;;;;;;;3.49;100.00;101509.25;5004260;28;20201;-72
2023/12/27 02:36:38;;;;;;;12.67;1.50;;;;;;;3.45;100.00;101502.97;5003655;28;20201;-72
2023/12/27 02:39:05;;;;;;;6.10;0.83;;;;;;;3.39;100.00;101510.03;5000924;28;20672;-72
2023/12/27 02:41:33;;;;;;;5.70;0.80;;;;;;;3.36;100.00;101517.53;5007421;28;20224;-72
2023/12/27 02:44:00;;;;;;;8.57;1.23;;;;;;;3.31;100.00;101514.94;5006272;28;20229;-72
2023/12/27 02:46:32;;;;;;;6.70;1.07;;;;;;;3.27;100.00;101521.72;5008272;28;20211;-73
2023/12/27 02:49:00;;;;;;;6.87;0.97;;;;;;;3.22;100.00;101519.84;5006786;28;20623;-71
2023/12/27 02:51:26;;;;;;;7.73;1.10;;;;;;;3.18;100.00;101520.59;5005220;28;20292;-71
2023/12/27 02:53:53;;;;;;;6.43;1.10;;;;;;;3.15;100.00;101521.09;5001454;28;20288;-72
2023/12/27 02:56:19;;;;;;;8.10;1.40;;;;;;;3.12;100.00;101519.03;5003384;28;20201;-71
2023/12/27 02:58:45;;;;;;;5.53;1.20;;;;;;;3.09;100.00;101522.13;5003899;28;20201;-72
2023/12/27 03:01:14;;;;;;;10.93;1.20;;;;;;;3.05;100.00;101516.63;5007196;28;20247;-72
2023/12/27 03:03:40;;;;;;;4.10;1.30;;;;;;;2.99;100.00;101525.47;5006211;28;20215;-72
2023/12/27 03:06:07;;;;;;;7.60;0.83;;;;;;;2.96;100.00;101533.00;5004269;28;20215;-72
2023/12/27 03:08:35;;;;;;;6.97;1.17;;;;;;;2.92;100.00;101526.72;5025906;28;20215;-72
2023/12/27 03:11:02;;;;;;;9.60;1.00;;;;;;;2.88;100.00;101521.22;5015098;28;20235;-71
2023/12/27 03:13:28;;;;;;;6.93;1.73;;;;;;;2.82;100.00;101521.44;5007153;28;20211;-71
2023/12/27 03:15:54;;;;;;;7.93;0.93;;;;;;;2.79;100.00;101521.94;5005414;28;20208;-72
2023/12/27 03:18:22;;;;;;;4.80;0.83;;;;;;;2.74;100.00;101517.47;5006686;28;20286;-73
2023/12/27 03:20:48;;;;;;;1.57;0.77;;;;;;;2.71;100.00;101514.59;5003946;28;20227;-71
2023/12/27 03:23:15;;;;;;;4.80;1.10;;;;;;;2.69;100.00;101520.03;4999410;28;20204;-72
2023/12/27 03:25:42;;;;;;;5.80;1.03;;;;;;;2.66;100.00;101519.78;5000888;28;20227;-73
2023/12/27 03:28:08;;;;;;;8.80;1.07;;;;;;;2.62;100.00;101523.91;5004313;28;20189;-72
2023/12/27 03:30:35;;;;;;;6.13;0.90;;;;;;;2.59;100.00;101519.19;5008124;28;20224;-72
2023/12/27 03:33:00;;;;;;;10.00;1.23;;;;;;;2.57;100.00;101524.66;5000334;28;20205;-72
2023/12/27 03:35:28;;;;;;;4.37;1.00;;;;;;;2.54;100.00;101525.16;5005267;28;20236;-72
2023/12/27 03:37:55;;;;;;;3.60;1.10;;;;;;;2.50;100.00;101523.28;5003613;28;20201;-72
2023/12/27 03:40:22;;;;;;;3.87;1.00;;;;;;;2.47;100.00;101534.22;5003911;28;20244;-72
2023/12/27 03:42:48;;;;;;;4.67;1.10;;;;;;;2.43;100.00;101530.53;5007191;28;20196;-72
2023/12/27 03:45:17;;;;;;;6.10;0.93;;;;;;;2.37;100.00;101531.50;5003841;28;20200;-72
2023/12/27 03:47:44;;;;;;;5.87;1.13;;;;;;;2.32;100.00;101528.88;5007300;28;20224;-72
2023/12/27 03:50:11;;;;;;;7.03;1.20;;;;;;;2.29;100.00;101529.38;5001580;28;20307;-73
2023/12/27 03:52:39;;;;;;;4.70;1.10;;;;;;;2.27;100.00;101539.25;5004696;28;20207;-72
2023/12/27 03:55:06;;;;;;;6.87;1.20;;;;;;;2.24;100.00;101534.53;5005061;28;20207;-71
2023/12/27 03:57:32;;;;;;;5.87;1.10;;;;;;;2.21;100.00;101524.59;5006789;28;20212;-72
2023/12/27 04:00:00;;;;;;;2.57;0.93;;;;;;;2.19;100.00;101532.66;5002006;28;20221;-72
2023/12/27 04:02:26;;;;;;;4.17;1.37;;;;;;;2.17;100.00;101529.53;5005886;28;20205;-72
2023/12/27 04:04:52;;;;;;;7.90;1.47;;;;;;;2.19;100.00;101547.53;4999475;28;20699;-72
2023/12/27 04:07:19;;;;;;;3.27;0.90;;;;;;;2.18;100.00;101535.53;5006371;28;20619;-71
2023/12/27 04:09:46;;;;;;;5.57;1.20;;;;;;;2.18;100.00;101532.94;5000213;28;20219;-71
2023/12/27 04:12:13;;;;;;;10.23;1.57;;;;;;;2.17;100.00;101539.94;4997328;28;20203;-72
2023/12/27 04:14:39;;;;;;;11.63;1.27;;;;;;;2.18;100.00;101543.34;5001157;28;20588;-71
2023/12/27 04:17:06;;;;;;;11.27;1.40;;;;;;;2.17;100.00;101547.75;5000885;28;20284;-72
2023/12/27 04:19:32;;;;;;;4.43;1.00;;;;;;;2.15;100.00;101542.03;5000724;28;20209;-71
2023/12/27 04:21:58;;;;;;;9.53;1.30;;;;;;;2.14;100.00;101550.06;5003302;28;20212;-72
2023/12/27 04:24:25;;;;;;;9.93;1.67;;;;;;;2.13;100.00;101545.91;5006564;28;20200;-72
2023/12/27 04:26:53;;;;;;;8.30;1.07;;;;;;;2.10;100.00;101549.78;5001371;28;20233;-72
2023/12/27 04:29:19;;;;;;;5.87;2.03;;;;;;;2.08;100.00;101548.47;5002231;28;20235;-72
2023/12/27 04:31:45;;;;;;;7.93;1.43;;;;;;;2.06;100.00;101560.94;5000289;28;20188;-72
2023/12/27 04:34:12;;;;;;;6.27;1.03;;;;;;;2.03;100.00;101556.22;5001452;28;20201;-73
2023/12/27 04:36:38;;;;;;;2.63;0.90;;;;;;;2.01;100.00;101558.25;5004651;28;20546;-72
2023/12/27 04:39:06;;;;;;;2.73;0.90;;;;;;;1.97;100.00;101552.75;5005205;28;20197;-72
2023/12/27 04:41:33;;;;;;;4.83;1.63;;;;;;;1.95;100.00;101552.22;5002270;28;20201;-72
2023/12/27 04:44:00;;;;;;;6.03;1.30;;;;;;;1.92;100.00;101552.72;5002733;28;20196;-72
2023/12/27 04:46:28;;;;;;;8.57;1.23;;;;;;;1.91;100.00;101558.16;5006886;28;20672;-72
2023/12/27 04:48:54;;;;;;;7.20;1.40;;;;;;;1.87;100.00;101557.88;5004958;28;20205;-72
2023/12/27 04:51:21;;;;;;;4.83;1.10;;;;;;;1.85;100.00;101559.94;5003531;28;20220;-72
2023/12/27 04:53:47;;;;;;;5.07;1.27;;;;;;;1.84;100.00;101566.19;4999765;28;20209;-73
2023/12/27 04:56:16;;;;;;;7.60;1.30;;;;;;;1.82;100.00;101570.81;4996460;28;20209;-72
2023/12/27 04:58:42;;;;;;;8.57;1.20;;;;;;;1.80;100.00;101569.50;5007163;28;20683;-72
2023/12/27 05:01:10;;;;;;;4.03;1.20;;;;;;;1.78;100.00;101564.56;5007372;28;20300;-72
2023/12/27 05:03:37;;;;;;;6.13;1.10;;;;;;;1.76;100.00;101568.44;5003991;28;20204;-72
2023/12/27 05:06:06;;;;;;;9.23;1.13;;;;;;;1.71;100.00;101566.53;5014310;28;20224;-72
2023/12/27 05:08:32;;;;;;;5.53;1.00;;;;;;;1.70;100.00;101575.38;4996445;28;20707;-72
2023/12/27 05:10:59;;;;;;;6.80;1.50;;;;;;;1.68;100.00;101576.66;4999707;28;20635;-71
2023/12/27 05:13:25;;;;;;;4.10;1.17;;;;;;;1.65;100.00;101582.31;5002040;28;20197;-72
2023/12/27 05:15:51;;;;;;;3.20;1.20;;;;;;;1.64;100.00;101573.75;4996754;28;20574;-72
2023/12/27 05:18:19;;;;;;;6.77;1.50;;;;;;;1.63;100.00;101576.59;5009130;28;20206;-72
2023/12/27 05:20:45;;;;;;;3.37;1.07;;;;;;;1.62;100.00;101580.22;5007708;28;20209;-71
2023/12/27 05:23:12;;;;;;;3.10;1.20;;;;;;;1.61;100.00;101579.44;5002225;28;20201;-72
2023/12/27 05:25:39;;;;;;;6.53;1.30;;;;;;;1.58;100.00;101579.94;4999691;28;20205;-72
2023/12/27 05:28:05;;;;;;;7.60;1.30;;;;;;;1.57;100.00;101591.34;5008566;28;20197;-72
2023/12/27 05:30:32;;;;;;;7.50;1.50;;;;;;;1.56;100.00;101599.41;5006398;28;20725;-72
2023/12/27 05:32:58;;;;;;;13.03;1.40;;;;;;;1.54;100.00;101593.66;5003549;28;20255;-72
2023/12/27 05:35:26;;;;;;;3.63;1.00;;;;;;;1.53;100.00;101600.69;5008304;28;20211;-72
2023/12/27 05:37:53;;;;;;;7.57;1.30;;;;;;;1.51;100.00;101599.34;4998584;28;20279;-72
2023/12/27 05:40:19;;;;;;;7.30;1.10;;;;;;;1.50;100.00;101600.38;4998771;28;20213;-72
2023/12/27 05:42:45;;;;;;;5.30;1.23;;;;;;;1.47;100.00;101600.84;4998723;28;20201;-71
2023/12/27 05:45:12;;;;;;;6.33;1.27;;;;;;;1.45;100.00;101600.31;4996229;28;20212;-72
2023/12/27 05:47:38;;;;;;;9.10;1.17;;;;;;;1.43;100.00;101600.56;5008319;28;20209;-71
2023/12/27 05:50:06;;;;;;;5.67;1.17;;;;;;;1.43;100.00;101604.97;5009082;28;20227;-72
2023/12/27 05:52:34;;;;;;;9.27;1.47;;;;;;;1.41;100.00;101597.38;5006504;28;20276;-72
2023/12/27 05:55:00;;;;;;;5.97;1.10;;;;;;;1.42;100.00;101598.19;5002421;28;20198;-72
2023/12/27 05:57:26;;;;;;;6.87;1.33;;;;;;;1.40;100.00;101597.66;5003798;28;20554;-72
2023/12/27 05:59:53;;;;;;;6.67;1.10;;;;;;;1.40;100.00;101597.66;5010111;28;20596;-72
2023/12/27 06:02:19;;;;;;;8.70;1.73;;;;;;;1.38;100.00;101590.06;5007544;28;20593;-72
2023/12/27 06:04:46;;;;;;;4.87;1.20;;;;;;;1.38;100.00;101584.06;4996718;28;20340;-72
2023/12/27 06:07:13;;;;;;;6.20;1.40;;;;;;;1.39;100.00;101601.25;5004173;28;20208;-73
2023/12/27 06:09:41;;;;;;;4.37;1.20;;;;;;;1.37;100.00;101598.91;5007181;28;20228;-72
2023/12/27 06:12:07;;;;;;;8.27;1.40;;;;;;;1.37;100.00;101603.31;5005725;28;20613;-72
2023/12/27 06:14:33;;;;;;;8.90;1.30;;;;;;;1.34;100.00;101609.78;5009318;28;20196;-72
2023/12/27 06:17:01;;;;;;;10.80;1.90;;;;;;;1.33;100.00;101610.03;5006437;28;20197;-72
2023/12/27 06:19:28;;;;;;;5.10;1.20;;;;;;;1.31;100.00;101615.47;5009139;28;20263;-71
2023/12/27 06:21:55;;;;;;;8.17;1.90;;;;;;;1.28;100.00;101621.16;5005066;28;20200;-72
2023/12/27 06:24:21;;;;;;;6.77;1.33;;;;;;;1.26;100.00;101631.00;5004877;28;20201;-72
2023/12/27 06:26:49;;;;;;;13.30;1.50;;;;;;;1.25;100.00;101623.44;5001569;28;20453;-72
2023/12/27 06:29:15;;;;;;;6.40;1.33;;;;;;;1.24;100.00;101627.06;5001430;28;20189;-72
2023/12/27 06:31:41;;;;;;;6.77;1.60;;;;;;;1.22;100.00;101635.13;4997429;28;20639;-72
2023/12/27 06:34:08;;;;;;;6.13;1.03;;;;;;;1.20;100.00;101634.56;5007859;28;20197;-72
2023/12/27 06:36:34;;;;;;;5.43;1.10;;;;;;;1.18;100.00;101639.22;4998635;28;20588;-72
2023/12/27 06:39:01;;;;;;;8.30;1.70;;;;;;;1.16;100.00;101646.47;5002145;28;20583;-72
2023/12/27 06:41:27;;;;;;;6.17;1.70;;;;;;;1.13;100.00;101641.75;5003249;28;20197;-72
2023/12/27 06:43:55;;;;;;;3.33;1.20;;;;;;;1.10;100.00;101651.84;5002388;28;20541;-72
2023/12/27 06:46:21;;;;;;;6.80;1.47;;;;;;;1.04;100.00;101650.94;5001990;28;20219;-72
2023/12/27 06:48:48;;;;;;;7.03;1.30;;;;;;;1.02;100.00;101660.00;5004071;28;20806;-72
2023/12/27 06:51:14;;;;;;;8.60;1.63;;;;;;;0.97;100.00;101654.72;5010465;28;20213;-72
2023/12/27 06:53:40;;;;;;;4.73;1.40;;;;;;;0.94;100.00;101666.38;5000198;28;20540;-72
2023/12/27 06:56:07;;;;;;;6.17;1.40;;;;;;;0.91;100.00;101656.47;5000249;28;20675;-71
2023/12/27 06:58:33;;;;;;;9.70;1.40;;;;;;;0.89;100.00;101655.13;5003581;28;20205;-74
2023/12/27 07:01:01;;;;;;;6.20;1.63;;;;;;;0.85;100.00;101660.03;5003170;28;20216;-72
2023/12/27 07:03:27;;;;;;;8.27;1.57;;;;;;;0.79;100.00;101660.94;5001817;28;20216;-73
2023/12/27 07:05:54;;;;;;;6.70;1.50;;;;;;;0.77;100.00;101659.59;5000673;28;20209;-72
2023/12/27 07:08:20;;;;;;;5.60;1.33;;;;;;;0.73;100.00;101669.66;5001760;28;20216;-72
2023/12/27 07:10:46;;;;;;;5.53;1.07;;;;;;;0.69;100.00;101658.16;5003418;28;20227;-72
2023/12/27 07:13:13;;;;;;;7.93;1.27;;;;;;;0.66;100.00;101666.44;5006394;28;20280;-72
2023/12/27 07:15:39;;;;;;;3.53;1.00;;;;;;;0.65;100.00;101666.66;4998006;28;20205;-72
2023/12/27 07:18:07;;;;;;;2.50;1.00;;;;;;;0.62;100.00;101678.31;5010544;28;20207;-72
2023/12/27 07:20:33;;;;;;;4.00;1.33;;;;;;;0.59;100.00;101676.19;5002019;28;20225;-72
2023/12/27 07:23:00;;;;;;;12.73;1.87;;;;;;;0.57;100.00;101687.84;5008279;28;20537;-72
2023/12/27 07:25:26;;;;;;;11.07;2.47;;;;;;;0.55;100.00;101688.06;5004286;28;20230;-72
2023/12/27 07:27:53;;;;;;;18.87;8.70;;;;;;;0.53;100.00;101703.09;5008073;28;20550;-72
2023/12/27 07:30:19;;;;;;;34.67;12.87;;;;;;;0.52;100.00;101700.75;5004455;28;20288;-72
2023/12/27 07:32:45;;;;;;;39.23;14.00;;;;;;;0.50;100.00;101700.19;5002060;28;20545;-72
2023/12/27 07:35:13;;;;;;;53.97;19.33;;;;;;;0.52;100.00;101704.13;5000263;28;20205;-72
2023/12/27 07:37:40;;;;;;;38.50;13.17;;;;;;;0.51;100.00;101697.34;5008803;28;20656;-73
2023/12/27 07:40:08;;;;;;;17.10;5.07;;;;;;;0.52;100.00;101706.72;5009885;28;20754;-73
2023/12/27 07:42:34;;;;;;;10.50;3.27;;;;;;;0.52;100.00;101705.94;5004579;28;20309;-72
2023/12/27 07:45:00;;;;;;;12.53;3.43;;;;;;;0.51;100.00;101709.53;5006838;28;20288;-72
2023/12/27 07:47:27;;;;;;;9.63;2.73;;;;;;;0.51;100.00;101719.94;5010610;28;20203;-72
2023/12/27 07:49:55;;;;;;;8.33;3.70;;;;;;;0.52;100.00;101717.09;5007257;28;20576;-72
2023/12/27 07:52:22;;;;;;;7.47;3.00;;;;;;;0.53;100.00;101725.72;5001629;28;20228;-72
2023/12/27 07:54:49;;;;;;;18.77;3.27;;;;;;;0.53;100.00;101736.09;5000925;28;20204;-72
2023/12/27 07:57:15;;;;;;;7.57;2.50;;;;;;;0.57;100.00;101737.22;5001134;28;20205;-73
2023/12/27 07:59:42;;;;;;;14.70;2.23;;;;;;;0.58;100.00;101736.19;5006078;28;20240;-73
2023/12/27 08:02:08;;;;;;;7.77;2.23;;;;;;;0.58;100.00;101749.19;5007001;28;20208;-72
2023/12/27 08:04:34;;;;;;;11.83;2.63;;;;;;;0.60;100.00;101747.13;5007268;28;20588;-72
2023/12/27 08:07:01;;;;;;;12.77;3.17;;;;;;;0.60;100.00;101745.34;5005631;28;20200;-72
2023/12/27 08:09:29;;;;;;;16.73;4.77;;;;;;;0.62;100.00;101743.28;5004864;28;20225;-72
2023/12/27 08:11:55;;;;;;;21.40;7.70;;;;;;;0.64;100.00;101748.25;5010572;28;20215;-71
2023/12/27 08:14:22;;;;;;;22.73;9.30;;;;;;;0.68;100.00;101747.56;5005733;28;20211;-72
2023/12/27 08:16:51;;;;;;;21.83;7.67;;;;;;;0.68;100.00;101744.97;5001231;28;20215;-72
2023/12/27 08:19:17;;;;;;;5.97;2.50;;;;;;;0.70;100.00;101735.13;5009513;28;20802;-73
2023/12/27 08:21:44;;;;;;;6.77;2.07;;;;;;;0.73;100.00;101733.88;5004358;28;20189;-72
2023/12/27 08:24:10;;;;;;;7.90;2.10;;;;;;;0.76;100.00;101736.00;4998903;28;20209;-72
2023/12/27 08:26:38;;;;;;;9.10;2.60;;;;;;;0.77;100.00;101727.97;5006703;28;20201;-73
2023/12/27 08:29:04;;;;;;;9.77;2.47;;;;;;;0.80;100.00;101743.13;5011701;28;20243;-72
2023/12/27 08:31:30;;;;;;;12.83;2.60;;;;;;;0.85;100.00;101747.63;5005801;28;20212;-72
2023/12/27 08:33:59;;;;;;;7.60;1.80;;;;;;;0.87;100.00;101755.97;5005141;28;20205;-71
2023/12/27 08:36:25;;;;;;;9.73;2.23;;;;;;;0.90;100.00;101758.09;5015738;28;20197;-72
2023/12/27 08:38:52;;;;;;;6.97;1.80;;;;;;;0.94;100.00;101754.78;5016524;28;20209;-72
2023/12/27 08:41:20;;;;;;;9.57;2.50;;;;;;;0.98;100.00;101750.72;5020927;28;20202;-72
2023/12/27 08:43:48;;;;;;;18.30;4.33;;;;;;;1.00;100.00;101760.88;5020624;28;20283;-71
2023/12/27 08:46:14;;;;;;;19.40;7.93;;;;;;;1.04;100.00;101762.00;5019556;28;20264;-70
2023/12/27 08:48:41;;;;;;;23.33;6.73;;;;;;;1.08;100.00;101774.31;5024806;28;20223;-72
2023/12/27 08:51:07;;;;;;;13.93;6.00;;;;;;;1.12;100.00;101774.63;5017508;28;20244;-71
2023/12/27 08:53:34;;;;;;;17.67;4.30;;;;;;;1.14;100.00;101768.16;5009604;28;20235;-72
2023/12/27 08:56:00;;;;;;;8.43;5.30;;;;;;;1.18;100.00;101776.28;5011256;28;20219;-73
2023/12/27 08:58:26;;;;;;;17.13;5.37;;;;;;;1.21;100.00;101781.03;5007670;28;20201;-72
2023/12/27 09:00:54;;;;;;;12.23;3.87;;;;;;;1.23;100.00;101782.38;5012286;28;20557;-72
2023/12/27 09:03:20;;;;;;;8.27;3.27;;;;;;;1.29;100.00;101794.44;5008900;28;20215;-72
2023/12/27 09:05:47;;;;;;;10.80;2.90;;;;;;;1.34;100.00;101802.31;5003194;28;20211;-73
2023/12/27 09:08:13;;;;;;;8.57;3.00;;;;;;;1.40;100.00;101798.00;5002719;28;20192;-72
2023/12/27 09:10:40;;;;;;;11.13;2.53;;;;;;;1.46;100.00;101787.44;5002297;28;20720;-73
2023/12/27 09:13:06;;;;;;;6.47;2.23;;;;;;;1.55;100.00;101796.44;5001780;28;20263;-72
2023/12/27 09:15:32;;;;;;;14.87;2.23;;;;;;;1.61;100.00;101792.09;5006051;28;20205;-73
2023/12/27 09:18:00;;;;;;;5.83;1.97;;;;;;;1.67;100.00;101791.94;5006946;28;20201;-71
2023/12/27 09:20:26;;;;;;;6.37;2.20;;;;;;;1.76;100.00;101784.53;5001537;28;20225;-72
2023/12/27 09:22:53;;;;;;;6.13;1.80;;;;;;;1.79;100.00;101787.44;4998731;28;20211;-71
2023/12/27 09:25:19;;;;;;;6.13;1.87;;;;;;;1.84;100.00;101787.53;5004068;28;20205;-72
2023/12/27 09:27:47;;;;;;;11.07;1.90;;;;;;;1.92;100.00;101794.91;5007299;28;20613;-72
2023/12/27 09:30:14;;;;;;;12.93;1.80;;;;;;;1.97;100.00;101794.22;5002484;28;20389;-73
2023/12/27 09:32:42;;;;;;;14.13;2.00;;;;;;;2.04;100.00;101800.03;5003365;28;20223;-71
2023/12/27 09:35:10;;;;;;;13.30;3.07;;;;;;;2.10;100.00;101794.66;5009442;28;20714;-72
2023/12/27 09:37:37;;;;;;;7.37;1.87;;;;;;;2.16;100.00;101785.88;5004119;28;20201;-72
2023/12/27 09:40:04;;;;;;;7.93;1.77;;;;;;;2.22;100.00;101795.34;5003838;28;20216;-73
2023/12/27 09:42:33;;;;;;;8.43;1.90;;;;;;;2.26;100.00;101780.81;5007573;28;20203;-71
2023/12/27 09:45:03;;;;;;;6.93;1.87;;;;;;;2.33;100.00;101789.22;5005393;28;20196;-72
2023/12/27 09:47:31;;;;;;;4.20;1.40;;;;;;;2.38;100.00;101784.09;5004319;28;20211;-72
2023/12/27 09:49:59;;;;;;;14.80;1.90;;;;;;;2.45;100.00;101789.13;5002333;28;20228;-71
2023/12/27 09:52:29;;;;;;;13.97;2.10;;;;;;;2.49;100.00;101790.22;4999379;28;20260;-72
2023/12/27 09:54:57;;;;;;;13.33;2.10;;;;;;;2.56;100.00;101786.41;5007863;28;20192;-73
2023/12/27 09:57:25;;;;;;;10.17;1.77;;;;;;;2.64;100.00;101779.97;4999126;28;20197;-72
2023/12/27 09:59:55;;;;;;;10.23;1.67;;;;;;;2.70;100.00;101787.59;5003223;28;20221;-73
2023/12/27 10:02:24;;;;;;;9.67;1.53;;;;;;;2.76;100.00;101778.03;5000508;28;20201;-72
2023/12/27 10:05:03;;;;;;;10.63;2.23;;;;;;;2.84;100.00;101773.16;5006732;28;20208;-72
2023/12/27 10:07:32;;;;;;;7.87;1.80;;;;;;;2.91;100.00;101770.34;5000170;28;20584;-72
2023/12/27 10:09:59;;;;;;;8.90;1.70;;;;;;;2.98;100.00;101755.28;4999282;28;20241;-72
2023/12/27 10:12:25;;;;;;;10.37;2.00;;;;;;;3.06;100.00;101757.47;5003039;28;20212;-72
2023/12/27 10:14:52;;;;;;;8.20;2.50;;;;;;;3.11;100.00;101757.50;5001377;28;20204;-72
2023/12/27 10:17:19;;;;;;;8.63;2.10;;;;;;;3.16;100.00;101760.94;4998878;28;20202;-72
2023/12/27 10:19:46;;;;;;;8.20;1.90;;;;;;;3.20;100.00;101767.25;5007791;28;20270;-72
2023/12/27 10:22:13;;;;;;;13.17;2.17;;;;;;;3.27;100.00;101772.28;5004788;28;20189;-72
2023/12/27 10:24:41;;;;;;;14.80;1.60;;;;;;;3.32;100.00;101777.53;5005261;28;20196;-73
2023/12/27 10:27:09;;;;;;;9.77;2.03;;;;;;;3.39;100.00;101780.72;5002330;28;20205;-72
2023/12/27 10:29:36;;;;;;;14.67;2.60;;;;;;;3.42;100.00;101778.38;5006132;28;20248;-72
2023/12/27 10:32:04;;;;;;;6.97;2.07;;;;;;;3.47;100.00;101768.00;5003678;28;20759;-70
2023/12/27 10:34:31;;;;;;;8.57;1.97;;;;;;;3.52;100.00;101764.66;4997728;28;20221;-73
2023/12/27 10:36:58;;;;;;;9.03;2.53;;;;;;;3.57;100.00;101762.06;4996918;28;20194;-73
2023/12/27 10:39:26;;;;;;;7.13;1.60;;;;;;;3.60;100.00;101758.94;5000246;28;20225;-73
2023/12/27 10:41:54;;;;;;;7.80;2.33;;;;;;;3.63;100.00;101759.22;5005803;28;20197;-73
2023/12/27 10:44:20;;;;;;;11.00;1.77;;;;;;;3.69;100.00;101755.59;5005588;28;20192;-73
2023/12/27 10:46:48;;;;;;;7.77;1.50;;;;;;;3.73;100.00;101753.31;4997591;28;20189;-71
2023/12/27 10:49:14;;;;;;;3.70;1.40;;;;;;;3.78;100.00;101755.94;5001185;28;20189;-73
2023/12/27 10:51:41;;;;;;;8.20;1.57;;;;;;;3.82;100.00;101751.78;4998928;28;20224;-73
2023/12/27 10:54:09;;;;;;;7.70;1.20;;;;;;;3.84;100.00;101747.88;5003989;28;20215;-72
2023/12/27 10:56:37;;;;;;;5.93;1.40;;;;;;;3.88;100.00;101732.50;5000183;28;20918;-72
2023/12/27 10:59:05;;;;;;;7.63;1.30;;;;;;;3.92;100.00;101733.56;5001833;28;20212;-71
2023/12/27 11:01:33;;;;;;;13.87;1.97;;;;;;;3.95;100.00;101733.81;4999442;28;20268;-72
2023/12/27 11:04:01;;;;;;;3.90;1.40;;;;;;;4.00;100.00;101720.78;4999264;28;20228;-73
2023/12/27 11:06:30;;;;;;;12.43;1.37;;;;;;;4.04;100.00;101715.88;4998574;28;20197;-73
2023/12/27 11:08:57;;;;;;;6.83;1.77;;;;;;;4.09;100.00;101713.28;5005333;28;20201;-72
2023/12/27 11:11:25;;;;;;;2.33;1.10;;;;;;;4.14;100.00;101705.47;4999129;28;20224;-72
2023/12/27 11:13:54;;;;;;;8.20;1.67;;;;;;;4.18;100.00;101702.06;4999108;28;20616;-73
2023/12/27 11:16:23;;;;;;;7.97;1.90;;;;;;;4.21;100.00;101714.63;5003044;28;20210;-73
2023/12/27 11:18:52;;;;;;;4.13;1.23;;;;;;;4.25;100.00;101707.06;5001043;28;20254;-72
2023/12/27 11:21:19;;;;;;;6.77;1.63;;;;;;;4.28;100.00;101696.88;5005307;28;20270;-72
2023/12/27 11:23:45;;;;;;;8.60;1.30;;;;;;;4.31;100.00;101704.19;5002857;28;20214;-73